sensor_id;sensor_type;location;lat;lon;timestamp;temperature;humidity
20929;DHT22;21895;47.072;15.132;2023-09-12T00:00:47;16.20;99.90
20929;DHT22;21895;47.072;15.132;2023-09-12T00:03:14;16.20;99.90
20929;DHT22;21895;47.072;15.132;2023-09-12T00:05:51;16.10;99.90
20929;DHT22;21895;47.072;15.132;2023-09-12T00:08:24;16.10;99.90
20929;DHT22;21895;47.072;15.132;2023-09-12T00:11:04;16.20;99.90
20929;DHT22;21895;47.072;15.132;2023-09-12T00:13:32;16.20;99.90
20929;DHT22;21895;47.072;15.132;2023-09-12T00:15:59;16.30;99.90
20929;DHT22;21895;47.072;15.132;2023-09-12T00:18:26;16.20;99.90
20929;DHT22;21895;47.072;15.132;2023-09-12T00:20:53;16.10;99.90
20929;DHT22;21895;47.072;15.132;2023-09-12T00:23:21;16.10;99.90
20929;DHT22;21895;47.072;15.132;2023-09-12T00:25:50;16.10;99.90
20929;DHT22;21895;47.072;15.132;2023-09-12T00:28:21;16.20;99.90
20929;DHT22;21895;47.072;15.132;2023-09-12T00:30:48;16.00;99.90
20929;DHT22;21895;47.072;15.132;2023-09-12T00:33:15;16.00;99.90
20929;DHT22;21895;47.072;15.132;2023-09-12T00:35:41;16.00;99.90
20929;DHT22;21895;47.072;15.132;2023-09-12T00:38:09;16.00;99.90
20929;DHT22;21895;47.072;15.132;2023-09-12T00:40:36;15.90;99.90
20929;DHT22;21895;47.072;15.132;2023-09-12T00:43:03;15.90;99.90
20929;DHT22;21895;47.072;15.132;2023-09-12T00:45:30;15.80;99.90
20929;DHT22;21895;47.072;15.132;2023-09-12T00:47:58;15.70;99.90
20929;DHT22;21895;47.072;15.132;2023-09-12T00:50:27;15.70;99.90
20929;DHT22;21895;47.072;15.132;2023-09-12T00:52:56;15.80;99.90
20929;DHT22;21895;47.072;15.132;2023-09-12T00:55:22;15.80;99.90
20929;DHT22;21895;47.072;15.132;2023-09-12T00:57:49;15.80;99.90
20929;DHT22;21895;47.072;15.132;2023-09-12T01:00:18;15.80;99.90
20929;DHT22;21895;47.072;15.132;2023-09-12T01:02:46;15.80;99.90
20929;DHT22;21895;47.072;15.132;2023-09-12T01:05:16;15.70;99.90
20929;DHT22;21895;47.072;15.132;2023-09-12T01:07:43;15.60;99.90
20929;DHT22;21895;47.072;15.132;2023-09-12T01:10:10;15.60;99.90
20929;DHT22;21895;47.072;15.132;2023-09-12T01:12:37;15.60;99.90
20929;DHT22;21895;47.072;15.132;2023-09-12T01:15:05;15.60;99.90
20929;DHT22;21895;47.072;15.132;2023-09-12T01:17:36;15.40;99.90
20929;DHT22;21895;47.072;15.132;2023-09-12T01:20:06;15.40;99.90
20929;DHT22;21895;47.072;15.132;2023-09-12T01:22:52;15.40;99.90
20929;DHT22;21895;47.072;15.132;2023-09-12T01:26:29;15.40;99.90
20929;DHT22;21895;47.072;15.132;2023-09-12T01:29:08;15.30;99.90
20929;DHT22;21895;47.072;15.132;2023-09-12T01:31:39;15.30;99.90
20929;DHT22;21895;47.072;15.132;2023-09-12T01:34:10;15.20;99.90
20929;DHT22;21895;47.072;15.132;2023-09-12T01:36:37;15.30;99.90
20929;DHT22;21895;47.072;15.132;2023-09-12T01:39:04;15.20;99.90
20929;DHT22;21895;47.072;15.132;2023-09-12T01:41:32;15.30;99.90
20929;DHT22;21895;47.072;15.132;2023-09-12T01:44:06;15.30;99.90
20929;DHT22;21895;47.072;15.132;2023-09-12T01:46:36;15.40;99.90
20929;DHT22;21895;47.072;15.132;2023-09-12T01:49:05;15.40;99.90
20929;DHT22;21895;47.072;15.132;2023-09-12T01:51:34;15.30;99.90
20929;DHT22;21895;47.072;15.132;2023-09-12T01:54:03;15.40;99.90
20929;DHT22;21895;47.072;15.132;2023-09-12T01:56:30;15.30;99.90
20929;DHT22;21895;47.072;15.132;2023-09-12T01:58:57;15.20;99.90
20929;DHT22;21895;47.072;15.132;2023-09-12T02:01:25;15.20;99.90
20929;DHT22;21895;47.072;15.132;2023-09-12T02:03:53;15.10;99.90
20929;DHT22;21895;47.072;15.132;2023-09-12T02:06:20;15.20;99.90
20929;DHT22;21895;47.072;15.132;2023-09-12T02:08:46;15.20;99.90
20929;DHT22;21895;47.072;15.132;2023-09-12T02:11:13;15.20;99.90
20929;DHT22;21895;47.072;15.132;2023-09-12T02:13:39;15.10;99.90
20929;DHT22;21895;47.072;15.132;2023-09-12T02:16:06;15.00;99.90
20929;DHT22;21895;47.072;15.132;2023-09-12T02:18:32;15.00;99.90
20929;DHT22;21895;47.072;15.132;2023-09-12T02:20:59;15.00;99.90
20929;DHT22;21895;47.072;15.132;2023-09-12T02:23:26;15.00;99.90
20929;DHT22;21895;47.072;15.132;2023-09-12T02:25:52;15.10;99.90
20929;DHT22;21895;47.072;15.132;2023-09-12T02:28:19;15.20;99.90
20929;DHT22;21895;47.072;15.132;2023-09-12T02:30:45;15.10;99.90
20929;DHT22;21895;47.072;15.132;2023-09-12T02:33:12;15.00;99.90
20929;DHT22;21895;47.072;15.132;2023-09-12T02:35:39;15.00;99.90
20929;DHT22;21895;47.072;15.132;2023-09-12T02:38:05;15.10;99.90
20929;DHT22;21895;47.072;15.132;2023-09-12T02:40:32;15.10;99.90
20929;DHT22;21895;47.072;15.132;2023-09-12T02:42:58;15.20;99.90
20929;DHT22;21895;47.072;15.132;2023-09-12T02:45:25;15.20;99.90
20929;DHT22;21895;47.072;15.132;2023-09-12T02:47:51;15.20;99.90
20929;DHT22;21895;47.072;15.132;2023-09-12T02:50:18;15.10;99.90
20929;DHT22;21895;47.072;15.132;2023-09-12T02:52:44;15.00;99.90
20929;DHT22;21895;47.072;15.132;2023-09-12T02:55:11;15.00;99.90
20929;DHT22;21895;47.072;15.132;2023-09-12T02:57:41;14.90;99.90
20929;DHT22;21895;47.072;15.132;2023-09-12T03:00:11;14.90;99.90
20929;DHT22;21895;47.072;15.132;2023-09-12T03:02:38;14.80;99.90
20929;DHT22;21895;47.072;15.132;2023-09-12T03:05:05;14.90;99.90
20929;DHT22;21895;47.072;15.132;2023-09-12T03:07:33;14.80;99.90
20929;DHT22;21895;47.072;15.132;2023-09-12T03:09:59;14.70;99.90
20929;DHT22;21895;47.072;15.132;2023-09-12T03:12:26;14.70;99.90
20929;DHT22;21895;47.072;15.132;2023-09-12T03:14:53;14.80;99.90
20929;DHT22;21895;47.072;15.132;2023-09-12T03:17:20;14.80;99.90
20929;DHT22;21895;47.072;15.132;2023-09-12T03:19:46;14.80;99.90
20929;DHT22;21895;47.072;15.132;2023-09-12T03:22:13;14.70;99.90
20929;DHT22;21895;47.072;15.132;2023-09-12T03:24:40;14.60;99.90
20929;DHT22;21895;47.072;15.132;2023-09-12T03:27:07;14.70;99.90
20929;DHT22;21895;47.072;15.132;2023-09-12T03:29:33;14.80;99.90
20929;DHT22;21895;47.072;15.132;2023-09-12T03:32:00;14.80;99.90
20929;DHT22;21895;47.072;15.132;2023-09-12T03:34:27;14.90;99.90
20929;DHT22;21895;47.072;15.132;2023-09-12T03:36:53;14.90;99.90
20929;DHT22;21895;47.072;15.132;2023-09-12T03:39:20;14.80;99.90
20929;DHT22;21895;47.072;15.132;2023-09-12T03:41:47;14.80;99.90
20929;DHT22;21895;47.072;15.132;2023-09-12T03:44:13;14.80;99.90
20929;DHT22;21895;47.072;15.132;2023-09-12T03:46:40;14.80;99.90
20929;DHT22;21895;47.072;15.132;2023-09-12T03:49:06;14.80;99.90
20929;DHT22;21895;47.072;15.132;2023-09-12T03:51:33;14.80;99.90
20929;DHT22;21895;47.072;15.132;2023-09-12T03:54:01;14.70;99.90
20929;DHT22;21895;47.072;15.132;2023-09-12T03:56:28;14.70;99.90
20929;DHT22;21895;47.072;15.132;2023-09-12T03:58:55;14.70;99.90
20929;DHT22;21895;47.072;15.132;2023-09-12T04:01:23;14.70;99.90
20929;DHT22;21895;47.072;15.132;2023-09-12T04:03:50;14.70;99.90
20929;DHT22;21895;47.072;15.132;2023-09-12T04:06:17;14.60;99.90
20929;DHT22;21895;47.072;15.132;2023-09-12T04:08:44;14.60;99.90
20929;DHT22;21895;47.072;15.132;2023-09-12T04:11:10;14.60;99.90
20929;DHT22;21895;47.072;15.132;2023-09-12T04:13:37;14.50;99.90
20929;DHT22;21895;47.072;15.132;2023-09-12T04:16:04;14.40;99.90
20929;DHT22;21895;47.072;15.132;2023-09-12T04:18:30;14.40;99.90
20929;DHT22;21895;47.072;15.132;2023-09-12T04:20:57;14.30;99.90
20929;DHT22;21895;47.072;15.132;2023-09-12T04:23:26;14.40;99.90
20929;DHT22;21895;47.072;15.132;2023-09-12T04:25:53;14.50;99.90
20929;DHT22;21895;47.072;15.132;2023-09-12T04:28:19;14.50;99.90
20929;DHT22;21895;47.072;15.132;2023-09-12T04:30:46;14.60;99.90
20929;DHT22;21895;47.072;15.132;2023-09-12T04:33:13;14.50;99.90
20929;DHT22;21895;47.072;15.132;2023-09-12T04:35:39;14.50;99.90
20929;DHT22;21895;47.072;15.132;2023-09-12T04:38:06;14.50;99.90
20929;DHT22;21895;47.072;15.132;2023-09-12T04:40:33;14.50;99.90
20929;DHT22;21895;47.072;15.132;2023-09-12T04:42:59;14.60;99.90
20929;DHT22;21895;47.072;15.132;2023-09-12T04:45:26;14.60;99.90
20929;DHT22;21895;47.072;15.132;2023-09-12T04:47:52;14.60;99.90
20929;DHT22;21895;47.072;15.132;2023-09-12T04:50:19;14.60;99.90
20929;DHT22;21895;47.072;15.132;2023-09-12T04:52:46;14.60;99.90
20929;DHT22;21895;47.072;15.132;2023-09-12T04:55:12;14.50;99.90
20929;DHT22;21895;47.072;15.132;2023-09-12T04:57:39;14.60;99.90
20929;DHT22;21895;47.072;15.132;2023-09-12T05:00:09;14.60;99.90
20929;DHT22;21895;47.072;15.132;2023-09-12T05:02:36;14.60;99.90
20929;DHT22;21895;47.072;15.132;2023-09-12T05:05:03;14.60;99.90
20929;DHT22;21895;47.072;15.132;2023-09-12T05:07:30;14.60;99.90
20929;DHT22;21895;47.072;15.132;2023-09-12T05:09:57;14.80;99.90
20929;DHT22;21895;47.072;15.132;2023-09-12T05:12:23;14.80;99.90
20929;DHT22;21895;47.072;15.132;2023-09-12T05:14:50;14.90;99.90
20929;DHT22;21895;47.072;15.132;2023-09-12T05:17:17;15.00;99.90
20929;DHT22;21895;47.072;15.132;2023-09-12T05:19:43;15.10;99.90
20929;DHT22;21895;47.072;15.132;2023-09-12T05:22:10;15.20;99.90
20929;DHT22;21895;47.072;15.132;2023-09-12T05:24:36;15.30;99.90
20929;DHT22;21895;47.072;15.132;2023-09-12T05:27:03;15.40;99.90
20929;DHT22;21895;47.072;15.132;2023-09-12T05:29:31;15.60;99.90
20929;DHT22;21895;47.072;15.132;2023-09-12T05:32:01;15.70;99.90
20929;DHT22;21895;47.072;15.132;2023-09-12T05:34:27;15.70;99.90
20929;DHT22;21895;47.072;15.132;2023-09-12T05:36:54;15.80;99.90
20929;DHT22;21895;47.072;15.132;2023-09-12T05:39:23;15.90;99.90
20929;DHT22;21895;47.072;15.132;2023-09-12T05:41:49;16.00;99.90
20929;DHT22;21895;47.072;15.132;2023-09-12T05:44:16;16.10;99.90
20929;DHT22;21895;47.072;15.132;2023-09-12T05:46:47;16.20;99.90
20929;DHT22;21895;47.072;15.132;2023-09-12T05:49:15;16.40;99.90
20929;DHT22;21895;47.072;15.132;2023-09-12T05:51:41;16.60;99.90
20929;DHT22;21895;47.072;15.132;2023-09-12T05:54:09;16.70;99.90
20929;DHT22;21895;47.072;15.132;2023-09-12T05:56:36;17.00;99.90
20929;DHT22;21895;47.072;15.132;2023-09-12T05:59:06;17.20;99.90
20929;DHT22;21895;47.072;15.132;2023-09-12T06:01:32;17.30;99.90
20929;DHT22;21895;47.072;15.132;2023-09-12T06:03:59;17.50;99.90
20929;DHT22;21895;47.072;15.132;2023-09-12T06:06:27;17.70;99.90
20929;DHT22;21895;47.072;15.132;2023-09-12T06:08:54;17.90;99.90
20929;DHT22;21895;47.072;15.132;2023-09-12T06:11:20;17.90;99.90
20929;DHT22;21895;47.072;15.132;2023-09-12T06:13:47;18.00;99.90
20929;DHT22;21895;47.072;15.132;2023-09-12T06:16:14;18.10;99.90
20929;DHT22;21895;47.072;15.132;2023-09-12T06:18:41;18.20;99.90
20929;DHT22;21895;47.072;15.132;2023-09-12T06:21:08;18.40;99.90
20929;DHT22;21895;47.072;15.132;2023-09-12T06:23:35;18.60;99.90
20929;DHT22;21895;47.072;15.132;2023-09-12T06:26:02;18.70;99.90
20929;DHT22;21895;47.072;15.132;2023-09-12T06:28:30;19.00;99.90
20929;DHT22;21895;47.072;15.132;2023-09-12T06:30:58;19.10;99.90
20929;DHT22;21895;47.072;15.132;2023-09-12T06:33:26;19.30;99.90
20929;DHT22;21895;47.072;15.132;2023-09-12T06:35:52;19.60;99.90
20929;DHT22;21895;47.072;15.132;2023-09-12T06:38:20;19.70;99.90
20929;DHT22;21895;47.072;15.132;2023-09-12T06:40:48;19.80;99.90
20929;DHT22;21895;47.072;15.132;2023-09-12T06:43:14;20.00;99.90
20929;DHT22;21895;47.072;15.132;2023-09-12T06:45:41;20.10;99.90
20929;DHT22;21895;47.072;15.132;2023-09-12T06:48:08;20.30;99.90
20929;DHT22;21895;47.072;15.132;2023-09-12T06:50:35;20.50;99.90
20929;DHT22;21895;47.072;15.132;2023-09-12T06:53:04;20.80;99.90
20929;DHT22;21895;47.072;15.132;2023-09-12T06:55:33;21.00;99.90
20929;DHT22;21895;47.072;15.132;2023-09-12T06:58:00;20.90;99.90
20929;DHT22;21895;47.072;15.132;2023-09-12T07:00:26;21.00;99.90
20929;DHT22;21895;47.072;15.132;2023-09-12T07:02:53;21.30;99.90
20929;DHT22;21895;47.072;15.132;2023-09-12T07:05:19;21.40;99.90
20929;DHT22;21895;47.072;15.132;2023-09-12T07:07:47;21.40;99.90
20929;DHT22;21895;47.072;15.132;2023-09-12T07:10:13;21.50;99.90
20929;DHT22;21895;47.072;15.132;2023-09-12T07:12:51;21.60;99.90
20929;DHT22;21895;47.072;15.132;2023-09-12T07:15:20;21.90;99.90
20929;DHT22;21895;47.072;15.132;2023-09-12T07:17:46;22.00;99.90
20929;DHT22;21895;47.072;15.132;2023-09-12T07:20:13;22.10;99.90
20929;DHT22;21895;47.072;15.132;2023-09-12T07:22:41;22.30;99.90
20929;DHT22;21895;47.072;15.132;2023-09-12T07:25:08;22.40;99.90
20929;DHT22;21895;47.072;15.132;2023-09-12T07:27:37;22.40;99.90
20929;DHT22;21895;47.072;15.132;2023-09-12T07:30:05;22.50;99.90
20929;DHT22;21895;47.072;15.132;2023-09-12T07:32:32;22.80;99.90
20929;DHT22;21895;47.072;15.132;2023-09-12T07:34:59;23.10;99.90
20929;DHT22;21895;47.072;15.132;2023-09-12T07:37:26;23.20;99.90
20929;DHT22;21895;47.072;15.132;2023-09-12T07:39:52;23.30;99.90
20929;DHT22;21895;47.072;15.132;2023-09-12T07:42:23;23.40;99.90
20929;DHT22;21895;47.072;15.132;2023-09-12T07:44:50;23.60;99.90
20929;DHT22;21895;47.072;15.132;2023-09-12T07:47:17;23.70;99.90
20929;DHT22;21895;47.072;15.132;2023-09-12T07:49:44;23.80;99.90
20929;DHT22;21895;47.072;15.132;2023-09-12T07:52:10;23.90;99.90
20929;DHT22;21895;47.072;15.132;2023-09-12T07:54:37;24.10;99.90
20929;DHT22;21895;47.072;15.132;2023-09-12T07:57:04;24.20;99.90
20929;DHT22;21895;47.072;15.132;2023-09-12T07:59:30;24.20;99.90
20929;DHT22;21895;47.072;15.132;2023-09-12T08:01:57;24.40;99.90
20929;DHT22;21895;47.072;15.132;2023-09-12T08:04:24;24.60;99.90
20929;DHT22;21895;47.072;15.132;2023-09-12T08:06:50;24.70;99.90
20929;DHT22;21895;47.072;15.132;2023-09-12T08:09:51;24.60;99.90
20929;DHT22;21895;47.072;15.132;2023-09-12T08:12:20;24.70;99.90
20929;DHT22;21895;47.072;15.132;2023-09-12T08:14:48;24.80;99.90
20929;DHT22;21895;47.072;15.132;2023-09-12T08:17:15;24.70;99.90
20929;DHT22;21895;47.072;15.132;2023-09-12T08:19:42;24.90;99.90
20929;DHT22;21895;47.072;15.132;2023-09-12T08:22:10;25.10;99.90
20929;DHT22;21895;47.072;15.132;2023-09-12T08:24:37;25.00;99.90
20929;DHT22;21895;47.072;15.132;2023-09-12T08:27:06;25.10;99.90
20929;DHT22;21895;47.072;15.132;2023-09-12T08:29:33;25.20;99.90
20929;DHT22;21895;47.072;15.132;2023-09-12T08:32:01;25.40;99.90
20929;DHT22;21895;47.072;15.132;2023-09-12T08:34:28;25.50;99.90
20929;DHT22;21895;47.072;15.132;2023-09-12T08:36:54;25.50;99.90
20929;DHT22;21895;47.072;15.132;2023-09-12T08:39:25;25.60;99.90
20929;DHT22;21895;47.072;15.132;2023-09-12T08:41:54;25.70;99.90
20929;DHT22;21895;47.072;15.132;2023-09-12T08:44:21;25.90;99.90
20929;DHT22;21895;47.072;15.132;2023-09-12T08:46:48;26.00;99.90
20929;DHT22;21895;47.072;15.132;2023-09-12T08:49:15;26.10;99.90
20929;DHT22;21895;47.072;15.132;2023-09-12T08:51:42;26.20;99.90
20929;DHT22;21895;47.072;15.132;2023-09-12T08:54:09;26.30;99.90
20929;DHT22;21895;47.072;15.132;2023-09-12T08:56:38;26.30;99.90
20929;DHT22;21895;47.072;15.132;2023-09-12T08:59:07;26.20;99.90
20929;DHT22;21895;47.072;15.132;2023-09-12T09:01:36;26.30;99.90
20929;DHT22;21895;47.072;15.132;2023-09-12T09:04:05;26.30;99.90
20929;DHT22;21895;47.072;15.132;2023-09-12T09:06:32;26.50;99.90
20929;DHT22;21895;47.072;15.132;2023-09-12T09:09:05;26.60;99.90
20929;DHT22;21895;47.072;15.132;2023-09-12T09:11:33;26.50;99.70
20929;DHT22;21895;47.072;15.132;2023-09-12T09:14:03;26.60;99.50
20929;DHT22;21895;47.072;15.132;2023-09-12T09:16:31;26.60;99.50
20929;DHT22;21895;47.072;15.132;2023-09-12T09:19:05;26.70;99.60
20929;DHT22;21895;47.072;15.132;2023-09-12T09:21:37;26.90;99.20
20929;DHT22;21895;47.072;15.132;2023-09-12T09:24:11;26.90;98.00
20929;DHT22;21895;47.072;15.132;2023-09-12T09:26:57;27.00;98.70
20929;DHT22;21895;47.072;15.132;2023-09-12T09:29:27;27.00;98.80
20929;DHT22;21895;47.072;15.132;2023-09-12T09:32:00;27.10;98.40
20929;DHT22;21895;47.072;15.132;2023-09-12T09:34:27;27.10;98.10
20929;DHT22;21895;47.072;15.132;2023-09-12T09:36:56;27.10;98.20
20929;DHT22;21895;47.072;15.132;2023-09-12T09:39:27;27.10;98.00
20929;DHT22;21895;47.072;15.132;2023-09-12T09:41:57;27.20;98.10
20929;DHT22;21895;47.072;15.132;2023-09-12T09:44:25;27.20;98.70
20929;DHT22;21895;47.072;15.132;2023-09-12T09:46:55;27.40;97.80
20929;DHT22;21895;47.072;15.132;2023-09-12T09:49:32;27.50;96.60
20929;DHT22;21895;47.072;15.132;2023-09-12T09:52:05;27.50;96.20
20929;DHT22;21895;47.072;15.132;2023-09-12T09:54:32;27.60;96.50
20929;DHT22;21895;47.072;15.132;2023-09-12T09:56:59;27.50;97.40
20929;DHT22;21895;47.072;15.132;2023-09-12T09:59:27;27.70;96.60
20929;DHT22;21895;47.072;15.132;2023-09-12T10:01:56;27.70;96.70
20929;DHT22;21895;47.072;15.132;2023-09-12T10:04:27;27.70;95.80
20929;DHT22;21895;47.072;15.132;2023-09-12T10:06:56;27.80;96.80
20929;DHT22;21895;47.072;15.132;2023-09-12T10:09:27;27.60;95.90
20929;DHT22;21895;47.072;15.132;2023-09-12T10:11:57;27.60;96.40
20929;DHT22;21895;47.072;15.132;2023-09-12T10:14:26;27.60;96.80
20929;DHT22;21895;47.072;15.132;2023-09-12T10:17:00;27.70;96.70
20929;DHT22;21895;47.072;15.132;2023-09-12T10:19:38;27.70;96.60
20929;DHT22;21895;47.072;15.132;2023-09-12T10:22:20;27.80;96.50
20929;DHT22;21895;47.072;15.132;2023-09-12T10:24:50;27.70;97.00
20929;DHT22;21895;47.072;15.132;2023-09-12T10:27:19;27.70;96.70
20929;DHT22;21895;47.072;15.132;2023-09-12T10:29:48;27.70;97.70
20929;DHT22;21895;47.072;15.132;2023-09-12T10:32:19;27.80;97.00
20929;DHT22;21895;47.072;15.132;2023-09-12T10:34:48;27.90;95.90
20929;DHT22;21895;47.072;15.132;2023-09-12T10:37:16;27.90;96.30
20929;DHT22;21895;47.072;15.132;2023-09-12T10:39:44;28.00;96.50
20929;DHT22;21895;47.072;15.132;2023-09-12T10:42:12;28.10;96.20
20929;DHT22;21895;47.072;15.132;2023-09-12T10:44:39;28.00;97.50
20929;DHT22;21895;47.072;15.132;2023-09-12T10:47:06;27.80;97.10
20929;DHT22;21895;47.072;15.132;2023-09-12T10:49:35;27.80;97.30
20929;DHT22;21895;47.072;15.132;2023-09-12T10:52:03;28.00;97.70
20929;DHT22;21895;47.072;15.132;2023-09-12T10:54:38;28.20;96.50
20929;DHT22;21895;47.072;15.132;2023-09-12T10:57:11;28.10;97.80
20929;DHT22;21895;47.072;15.132;2023-09-12T11:02:33;28.00;97.70
20929;DHT22;21895;47.072;15.132;2023-09-12T11:08:08;28.30;96.70
20929;DHT22;21895;47.072;15.132;2023-09-12T11:10:34;28.20;96.90
20929;DHT22;21895;47.072;15.132;2023-09-12T11:13:01;28.20;96.30
20929;DHT22;21895;47.072;15.132;2023-09-12T11:15:28;28.10;96.20
20929;DHT22;21895;47.072;15.132;2023-09-12T11:18:05;28.20;96.60
20929;DHT22;21895;47.072;15.132;2023-09-12T11:22:57;28.30;96.10
20929;DHT22;21895;47.072;15.132;2023-09-12T11:25:36;28.20;96.60
20929;DHT22;21895;47.072;15.132;2023-09-12T11:28:04;28.00;97.10
20929;DHT22;21895;47.072;15.132;2023-09-12T11:30:31;28.00;96.30
20929;DHT22;21895;47.072;15.132;2023-09-12T11:32:58;28.20;96.00
20929;DHT22;21895;47.072;15.132;2023-09-12T11:35:28;28.20;95.60
20929;DHT22;21895;47.072;15.132;2023-09-12T11:37:57;28.30;95.90
20929;DHT22;21895;47.072;15.132;2023-09-12T11:41:41;28.30;95.70
20929;DHT22;21895;47.072;15.132;2023-09-12T11:44:08;28.40;95.90
20929;DHT22;21895;47.072;15.132;2023-09-12T11:46:35;28.30;95.40
20929;DHT22;21895;47.072;15.132;2023-09-12T11:49:02;28.50;95.10
20929;DHT22;21895;47.072;15.132;2023-09-12T11:51:29;28.50;95.70
20929;DHT22;21895;47.072;15.132;2023-09-12T11:53:56;28.40;95.90
20929;DHT22;21895;47.072;15.132;2023-09-12T11:56:25;28.40;95.50
20929;DHT22;21895;47.072;15.132;2023-09-12T11:58:53;28.50;95.30
20929;DHT22;21895;47.072;15.132;2023-09-12T12:01:21;28.50;94.40
20929;DHT22;21895;47.072;15.132;2023-09-12T12:03:48;28.50;95.40
20929;DHT22;21895;47.072;15.132;2023-09-12T12:06:18;28.60;95.20
20929;DHT22;21895;47.072;15.132;2023-09-12T12:08:45;28.60;94.70
20929;DHT22;21895;47.072;15.132;2023-09-12T12:11:12;28.60;94.40
20929;DHT22;21895;47.072;15.132;2023-09-12T12:13:38;28.50;94.40
20929;DHT22;21895;47.072;15.132;2023-09-12T12:16:15;28.60;95.10
20929;DHT22;21895;47.072;15.132;2023-09-12T12:18:43;28.60;94.50
20929;DHT22;21895;47.072;15.132;2023-09-12T12:21:09;28.70;94.20
20929;DHT22;21895;47.072;15.132;2023-09-12T12:23:36;28.70;93.90
20929;DHT22;21895;47.072;15.132;2023-09-12T12:26:11;28.60;94.40
20929;DHT22;21895;47.072;15.132;2023-09-12T12:28:38;28.70;94.70
20929;DHT22;21895;47.072;15.132;2023-09-12T12:31:07;28.70;93.90
20929;DHT22;21895;47.072;15.132;2023-09-12T12:33:33;28.60;94.30
20929;DHT22;21895;47.072;15.132;2023-09-12T12:38:11;28.50;94.60
20929;DHT22;21895;47.072;15.132;2023-09-12T12:40:39;28.40;94.70
20929;DHT22;21895;47.072;15.132;2023-09-12T12:43:18;28.50;94.90
20929;DHT22;21895;47.072;15.132;2023-09-12T12:45:56;28.50;94.50
20929;DHT22;21895;47.072;15.132;2023-09-12T12:48:34;28.60;93.50
20929;DHT22;21895;47.072;15.132;2023-09-12T12:51:19;28.50;93.40
20929;DHT22;21895;47.072;15.132;2023-09-12T12:53:53;28.40;94.00
20929;DHT22;21895;47.072;15.132;2023-09-12T12:56:26;28.40;94.60
20929;DHT22;21895;47.072;15.132;2023-09-12T12:58:58;28.50;94.70
20929;DHT22;21895;47.072;15.132;2023-09-12T13:01:29;28.40;94.60
20929;DHT22;21895;47.072;15.132;2023-09-12T13:03:56;28.40;94.10
20929;DHT22;21895;47.072;15.132;2023-09-12T13:06:22;28.40;94.50
20929;DHT22;21895;47.072;15.132;2023-09-12T13:08:50;28.50;94.80
20929;DHT22;21895;47.072;15.132;2023-09-12T13:11:17;28.50;95.00
20929;DHT22;21895;47.072;15.132;2023-09-12T13:13:47;28.60;94.50
20929;DHT22;21895;47.072;15.132;2023-09-12T13:16:15;28.60;93.70
20929;DHT22;21895;47.072;15.132;2023-09-12T13:18:42;28.70;94.20
20929;DHT22;21895;47.072;15.132;2023-09-12T13:21:09;28.70;94.70
20929;DHT22;21895;47.072;15.132;2023-09-12T13:23:37;28.70;95.30
20929;DHT22;21895;47.072;15.132;2023-09-12T13:26:07;28.70;94.80
20929;DHT22;21895;47.072;15.132;2023-09-12T13:28:34;28.70;94.60
20929;DHT22;21895;47.072;15.132;2023-09-12T13:31:01;28.80;94.70
20929;DHT22;21895;47.072;15.132;2023-09-12T13:33:28;28.80;94.60
20929;DHT22;21895;47.072;15.132;2023-09-12T13:35:54;28.80;94.80
20929;DHT22;21895;47.072;15.132;2023-09-12T13:38:21;28.80;94.70
20929;DHT22;21895;47.072;15.132;2023-09-12T13:40:49;28.60;95.10
20929;DHT22;21895;47.072;15.132;2023-09-12T13:43:15;28.40;94.90
20929;DHT22;21895;47.072;15.132;2023-09-12T13:45:42;28.20;95.00
20929;DHT22;21895;47.072;15.132;2023-09-12T13:48:09;28.20;96.20
20929;DHT22;21895;47.072;15.132;2023-09-12T13:50:35;28.10;96.10
20929;DHT22;21895;47.072;15.132;2023-09-12T13:53:02;28.20;95.00
20929;DHT22;21895;47.072;15.132;2023-09-12T13:55:36;28.20;96.10
20929;DHT22;21895;47.072;15.132;2023-09-12T13:58:04;28.20;96.20
20929;DHT22;21895;47.072;15.132;2023-09-12T14:00:33;28.20;95.70
20929;DHT22;21895;47.072;15.132;2023-09-12T14:03:04;28.40;96.00
20929;DHT22;21895;47.072;15.132;2023-09-12T14:05:31;28.50;93.70
20929;DHT22;21895;47.072;15.132;2023-09-12T14:07:58;28.40;94.20
20929;DHT22;21895;47.072;15.132;2023-09-12T14:10:25;28.30;94.40
20929;DHT22;21895;47.072;15.132;2023-09-12T14:13:03;28.20;94.80
20929;DHT22;21895;47.072;15.132;2023-09-12T14:15:47;28.30;95.20
20929;DHT22;21895;47.072;15.132;2023-09-12T14:18:16;28.40;95.10
20929;DHT22;21895;47.072;15.132;2023-09-12T14:20:45;28.40;94.60
20929;DHT22;21895;47.072;15.132;2023-09-12T14:23:14;28.30;95.00
20929;DHT22;21895;47.072;15.132;2023-09-12T14:25:42;28.20;94.10
20929;DHT22;21895;47.072;15.132;2023-09-12T14:28:09;28.20;94.30
20929;DHT22;21895;47.072;15.132;2023-09-12T14:30:37;28.10;94.50
20929;DHT22;21895;47.072;15.132;2023-09-12T14:33:10;28.00;93.40
20929;DHT22;21895;47.072;15.132;2023-09-12T14:35:40;28.00;93.80
20929;DHT22;21895;47.072;15.132;2023-09-12T14:38:10;27.90;95.20
20929;DHT22;21895;47.072;15.132;2023-09-12T14:40:37;27.80;95.90
20929;DHT22;21895;47.072;15.132;2023-09-12T14:43:04;27.70;96.00
20929;DHT22;21895;47.072;15.132;2023-09-12T14:45:30;27.70;95.80
20929;DHT22;21895;47.072;15.132;2023-09-12T14:47:57;27.50;96.80
20929;DHT22;21895;47.072;15.132;2023-09-12T14:50:24;27.50;97.30
20929;DHT22;21895;47.072;15.132;2023-09-12T14:53:04;27.40;97.20
20929;DHT22;21895;47.072;15.132;2023-09-12T14:55:32;27.30;97.30
20929;DHT22;21895;47.072;15.132;2023-09-12T14:57:59;27.20;97.30
20929;DHT22;21895;47.072;15.132;2023-09-12T15:00:26;27.20;97.50
20929;DHT22;21895;47.072;15.132;2023-09-12T15:02:52;27.20;97.00
20929;DHT22;21895;47.072;15.132;2023-09-12T15:05:19;27.10;97.00
20929;DHT22;21895;47.072;15.132;2023-09-12T15:07:46;27.10;97.00
20929;DHT22;21895;47.072;15.132;2023-09-12T15:10:12;27.20;97.10
20929;DHT22;21895;47.072;15.132;2023-09-12T15:12:39;27.20;97.10
20929;DHT22;21895;47.072;15.132;2023-09-12T15:15:06;27.20;97.00
20929;DHT22;21895;47.072;15.132;2023-09-12T15:17:33;27.20;96.60
20929;DHT22;21895;47.072;15.132;2023-09-12T15:19:59;27.30;96.70
20929;DHT22;21895;47.072;15.132;2023-09-12T15:22:26;27.30;96.60
20929;DHT22;21895;47.072;15.132;2023-09-12T15:24:53;27.40;96.80
20929;DHT22;21895;47.072;15.132;2023-09-12T15:27:20;27.30;96.50
20929;DHT22;21895;47.072;15.132;2023-09-12T15:29:46;27.30;96.30
20929;DHT22;21895;47.072;15.132;2023-09-12T15:32:13;27.30;96.30
20929;DHT22;21895;47.072;15.132;2023-09-12T15:34:39;27.10;97.70